Time;durP1;ratioP1;P1;durP2;ratioP2;P2;SDS_P1;SDS_P2;PMS_P1;PMS_P2;Temp;Humidity;BMP_temperature;BMP_pressure;BME280_temperature;BME280_humidity;BME280_pressure;Samples;Min_cycle;Max_cycle;Signal;HPM_P1;HPM_P2
2022/10/23 00:01:28;;;;;;;12.88;5.60;;;;;;;14.05;100.00;101292.22;5267853;28;20390;-77
2022/10/23 00:04:06;;;;;;;13.35;5.93;;;;;;;14.04;100.00;101284.44;5268193;28;20028;-77
2022/10/23 00:06:38;;;;;;;11.25;5.00;;;;;;;14.06;100.00;101291.25;5268900;28;20039;-77
2022/10/23 00:09:12;;;;;;;11.33;4.80;;;;;;;14.04;100.00;101285.28;5268721;28;20016;-77
2022/10/23 00:11:46;;;;;;;8.23;4.75;;;;;;;14.04;100.00;101282.63;5269260;28;20353;-77
2022/10/23 00:14:21;;;;;;;9.80;5.20;;;;;;;14.05;100.00;101276.41;5269108;28;20390;-77
2022/10/23 00:16:52;;;;;;;9.20;5.10;;;;;;;14.06;100.00;101282.50;5268257;28;20024;-77
2022/10/23 00:19:24;;;;;;;8.80;4.57;;;;;;;14.09;100.00;101274.28;5268341;28;20032;-77
2022/10/23 00:21:55;;;;;;;11.20;5.13;;;;;;;14.06;100.00;101274.59;5267424;28;20470;-79
2022/10/23 00:24:26;;;;;;;11.15;4.78;;;;;;;14.12;100.00;101288.03;5268208;28;20029;-77
2022/10/23 00:26:57;;;;;;;9.73;4.95;;;;;;;14.14;100.00;101281.78;5268588;28;20028;-78
2022/10/23 00:29:29;;;;;;;10.30;4.70;;;;;;;14.15;100.00;101288.72;5266264;28;20115;-76
2022/10/23 00:32:00;;;;;;;9.95;5.40;;;;;;;14.18;100.00;101276.09;5265833;28;20021;-77
2022/10/23 00:34:31;;;;;;;9.88;4.97;;;;;;;14.05;100.00;101276.41;5268238;28;20494;-77
2022/10/23 00:37:02;;;;;;;7.28;4.65;;;;;;;14.06;100.00;101278.06;5266131;28;20029;-77
2022/10/23 00:39:34;;;;;;;8.07;4.30;;;;;;;13.99;100.00;101273.50;5266827;28;20033;-76
2022/10/23 00:42:05;;;;;;;8.13;4.75;;;;;;;13.93;100.00;101279.31;5267020;28;20489;-76
2022/10/23 00:45:11;;;;;;;8.80;4.45;;;;;;;14.18;100.00;101270.81;5266948;28;20028;-77
2022/10/23 00:47:43;;;;;;;13.23;4.78;;;;;;;13.90;100.00;101269.91;5266086;28;20029;-77
2022/10/23 00:50:15;;;;;;;8.40;4.57;;;;;;;13.92;100.00;101267.13;5266142;28;20031;-77
2022/10/23 00:52:52;;;;;;;11.43;4.93;;;;;;;13.96;100.00;101269.34;5264420;28;20028;-78
2022/10/23 00:55:25;;;;;;;11.18;5.00;;;;;;;13.87;100.00;101273.66;5267495;28;20287;-79
2022/10/23 00:57:57;;;;;;;9.00;4.63;;;;;;;14.02;100.00;101275.88;5268042;28;20680;-77
2022/10/23 01:00:39;;;;;;;8.77;4.40;;;;;;;14.09;100.00;101271.66;5267469;28;20032;-77
2022/10/23 01:03:11;;;;;;;11.50;5.15;;;;;;;14.09;100.00;101266.41;5267102;28;20050;-77
2022/10/23 01:05:59;;;;;;;10.52;4.20;;;;;;;14.30;100.00;101266.22;5268125;28;20024;-76
2022/10/23 01:08:42;;;;;;;8.60;4.20;;;;;;;14.05;100.00;101259.75;5265329;28;20115;-78
2022/10/23 01:11:13;;;;;;;10.98;4.90;;;;;;;14.09;100.00;101275.16;5268345;28;20157;-77
2022/10/23 01:14:01;;;;;;;10.93;4.60;;;;;;;14.18;100.00;101267.34;5267751;28;20112;-78
2022/10/23 01:16:45;;;;;;;10.23;4.60;;;;;;;14.19;100.00;101256.66;5266875;28;20065;-76
2022/10/23 01:19:26;;;;;;;9.23;4.28;;;;;;;14.13;100.00;101257.25;5267704;28;20029;-77
2022/10/23 01:22:35;;;;;;;7.95;4.30;;;;;;;14.23;100.00;101268.56;5265706;28;20446;-77
2022/10/23 01:25:39;;;;;;;11.73;4.68;;;;;;;14.30;100.00;101258.31;5266108;28;20029;-77
2022/10/23 01:28:18;;;;;;;14.35;4.95;;;;;;;14.03;100.00;101245.91;5260638;28;20032;-77
2022/10/23 01:30:50;;;;;;;14.73;4.47;;;;;;;14.00;100.00;101247.00;5266494;28;20025;-76
2022/10/23 01:33:30;;;;;;;8.30;4.95;;;;;;;14.23;100.00;101239.59;5268050;28;20032;-76
2022/10/23 01:36:05;;;;;;;10.10;4.47;;;;;;;14.15;100.00;101246.56;5266120;28;20016;-76
2022/10/23 01:38:52;;;;;;;9.48;4.40;;;;;;;14.10;100.00;101241.72;5272302;28;20025;-77
2022/10/23 01:41:32;;;;;;;12.55;4.50;;;;;;;13.96;100.00;101245.63;5266181;28;20032;-76
2022/10/23 01:44:18;;;;;;;10.80;5.35;;;;;;;14.05;100.00;101223.72;5264804;28;20028;-78
2022/10/23 01:46:51;;;;;;;11.68;4.63;;;;;;;13.85;100.00;101220.28;5265798;28;20036;-77
2022/10/23 01:49:23;;;;;;;10.77;4.82;;;;;;;13.79;100.00;101212.97;5267318;28;20500;-76
2022/10/23 01:52:00;;;;;;;9.60;4.43;;;;;;;13.76;100.00;101220.31;5264513;28;20025;-76
2022/10/23 01:54:36;;;;;;;10.60;5.07;;;;;;;13.80;100.00;101219.06;5266763;28;21026;-77
2022/10/23 01:57:11;;;;;;;9.05;4.88;;;;;;;13.76;100.00;101215.06;5265300;28;20470;-77
2022/10/23 01:59:50;;;;;;;8.43;4.22;;;;;;;13.84;100.00;101216.00;5264042;28;20139;-76
2022/10/23 02:02:23;;;;;;;10.02;4.38;;;;;;;13.68;100.00;101214.94;5264102;28;20492;-77
2022/10/23 02:05:04;;;;;;;10.27;4.65;;;;;;;13.85;100.00;101220.28;5263009;28;20020;-76
2022/10/23 02:07:36;;;;;;;8.13;4.68;;;;;;;13.71;100.00;101210.19;5267201;28;20024;-77
2022/10/23 02:10:08;;;;;;;8.27;4.75;;;;;;;13.82;100.00;101222.38;5265047;28;20032;-76
2022/10/23 02:12:57;;;;;;;9.83;5.20;;;;;;;13.83;100.00;101218.78;5266290;28;20024;-78
2022/10/23 02:15:39;;;;;;;11.45;4.53;;;;;;;13.93;100.00;101218.75;5266467;28;20040;-77
2022/10/23 02:18:10;;;;;;;10.30;4.75;;;;;;;13.77;100.00;101208.81;5266920;28;20032;-78
2022/10/23 02:20:46;;;;;;;12.23;4.68;;;;;;;13.70;100.00;101205.06;5265512;28;20549;-76
2022/10/23 02:23:35;;;;;;;8.50;4.18;;;;;;;13.76;100.00;101205.34;5265335;28;20029;-76
2022/10/23 02:26:20;;;;;;;8.88;4.57;;;;;;;13.83;100.00;101213.53;5264384;28;20081;-77
2022/10/23 02:28:58;;;;;;;9.98;4.63;;;;;;;13.75;100.00;101201.06;5267218;28;20044;-76
2022/10/23 02:31:30;;;;;;;18.15;6.00;;;;;;;13.68;100.00;101199.13;5263404;28;20028;-78
2022/10/23 02:34:01;;;;;;;10.65;5.53;;;;;;;13.69;100.00;101203.44;5264637;28;20435;-76
2022/10/23 02:36:33;;;;;;;8.48;4.88;;;;;;;13.67;100.00;101198.28;5265765;28;20032;-77
2022/10/23 02:39:04;;;;;;;9.52;4.70;;;;;;;13.70;100.00;101191.91;5265288;28;20040;-77
2022/10/23 02:41:53;;;;;;;9.05;5.13;;;;;;;13.92;100.00;101174.94;5265865;28;20036;-77
2022/10/23 02:44:37;;;;;;;10.77;5.75;;;;;;;13.73;100.00;101167.94;5272999;28;20123;-76
2022/10/23 02:47:20;;;;;;;;;;;;;;;14.38;100.00;101152.16;5267123;28;20074;-77
2022/10/23 02:50:16;;;;;;;11.88;6.05;;;;;;;13.96;100.00;101148.16;5263669;28;19928;-77
2022/10/23 02:52:50;;;;;;;8.85;5.25;;;;;;;13.80;100.00;101135.63;5263200;28;20024;-76
2022/10/23 02:55:30;;;;;;;12.13;5.20;;;;;;;13.77;100.00;101138.53;5264878;28;20055;-76
2022/10/23 02:58:16;;;;;;;11.10;5.38;;;;;;;13.99;100.00;101131.25;5268825;28;20451;-77
2022/10/23 03:00:54;;;;;;;9.10;4.90;;;;;;;13.85;100.00;101122.00;5268311;28;20115;-77
2022/10/23 03:03:34;;;;;;;10.68;5.28;;;;;;;13.92;100.00;101123.09;5269117;28;20537;-76
2022/10/23 03:06:06;;;;;;;11.85;5.05;;;;;;;13.81;100.00;101113.56;5267456;28;20021;-79
2022/10/23 03:09:03;;;;;;;9.77;5.43;;;;;;;13.91;100.00;101110.91;5270636;28;20032;-77
2022/10/23 03:11:34;;;;;;;10.10;5.35;;;;;;;13.77;100.00;101112.19;5269401;28;20028;-78
2022/10/23 03:14:06;;;;;;;10.88;4.85;;;;;;;13.74;100.00;101115.13;5268556;28;20028;-76
2022/10/23 03:16:37;;;;;;;9.13;5.18;;;;;;;13.71;100.00;101104.88;5268884;28;20086;-77
2022/10/23 03:19:10;;;;;;;9.95;5.00;;;;;;;13.78;100.00;101100.69;5269221;28;20036;-78
2022/10/23 03:21:42;;;;;;;9.98;5.15;;;;;;;13.72;100.00;101093.38;5266942;28;20021;-77
2022/10/23 03:24:13;;;;;;;9.18;5.00;;;;;;;13.79;100.00;101099.72;5269522;28;20181;-76
2022/10/23 03:26:44;;;;;;;6.93;4.63;;;;;;;13.78;100.00;101103.31;5268482;28;20025;-76
2022/10/23 03:29:15;;;;;;;12.18;5.57;;;;;;;13.77;100.00;101095.56;5275001;28;20036;-77
2022/10/23 03:31:47;;;;;;;8.93;5.78;;;;;;;13.79;100.00;101099.72;5270308;28;20024;-77
2022/10/23 03:34:18;;;;;;;12.70;5.80;;;;;;;13.77;100.00;101096.41;5267966;28;20029;-77
2022/10/23 03:36:49;;;;;;;9.65;5.28;;;;;;;13.76;100.00;101091.28;5268079;28;20036;-77
2022/10/23 03:39:21;;;;;;;7.72;4.97;;;;;;;13.77;100.00;101093.78;5270603;28;20036;-77
2022/10/23 03:41:52;;;;;;;9.93;5.28;;;;;;;13.76;100.00;101086.84;5269142;28;20238;-77
2022/10/23 03:44:23;;;;;;;9.27;5.28;;;;;;;13.78;100.00;101082.25;5266699;28;20024;-77
2022/10/23 03:46:55;;;;;;;11.45;5.65;;;;;;;13.79;100.00;101076.03;5270045;28;20090;-77
2022/10/23 03:49:26;;;;;;;10.48;5.20;;;;;;;13.83;100.00;101079.22;5268151;28;20033;-78
2022/10/23 03:51:58;;;;;;;10.73;5.63;;;;;;;13.83;100.00;101063.41;5267717;28;20021;-78
2022/10/23 03:54:29;;;;;;;10.40;5.88;;;;;;;13.87;100.00;101070.88;5269468;28;20040;-76
2022/10/23 03:57:01;;;;;;;12.32;5.28;;;;;;;13.85;100.00;101070.16;5269268;28;20517;-77
2022/10/23 03:59:32;;;;;;;9.00;5.40;;;;;;;13.84;100.00;101062.44;5267585;28;20063;-77
2022/10/23 04:02:03;;;;;;;10.35;5.93;;;;;;;13.92;100.00;101061.69;5264632;28;20020;-78
2022/10/23 04:04:35;;;;;;;12.18;5.55;;;;;;;13.87;100.00;101041.91;5270125;28;20025;-77
2022/10/23 04:07:06;;;;;;;10.07;5.25;;;;;;;13.85;100.00;101043.84;5265500;28;20017;-78
2022/10/23 04:09:37;;;;;;;8.40;5.75;;;;;;;13.92;100.00;101044.09;5266223;28;20055;-76
2022/10/23 04:12:08;;;;;;;9.48;5.60;;;;;;;13.92;100.00;101038.00;5269250;28;20024;-77
2022/10/23 04:14:40;;;;;;;12.77;5.90;;;;;;;13.91;100.00;101042.44;5266626;28;20029;-77
2022/10/23 04:17:11;;;;;;;13.60;5.80;;;;;;;13.90;100.00;101032.03;5267548;28;20036;-77
2022/10/23 04:19:42;;;;;;;13.57;5.53;;;;;;;13.85;100.00;101025.41;5268383;28;20028;-79
2022/10/23 04:22:13;;;;;;;12.20;5.35;;;;;;;13.85;100.00;101035.94;5267918;28;20094;-77
2022/10/23 04:24:46;;;;;;;9.52;5.05;;;;;;;13.88;100.00;101048.81;5267801;28;20090;-79
2022/10/23 04:27:18;;;;;;;9.05;4.72;;;;;;;13.87;100.00;101039.25;5265932;28;20032;-76
2022/10/23 04:29:49;;;;;;;9.50;5.68;;;;;;;13.87;100.00;101038.44;5266892;28;20028;-78
2022/10/23 04:32:20;;;;;;;9.50;5.10;;;;;;;13.88;100.00;101033.00;5267706;28;20735;-77
2022/10/23 04:34:52;;;;;;;7.25;4.85;;;;;;;13.87;100.00;101036.63;5267311;28;20024;-78
2022/10/23 04:37:23;;;;;;;9.73;5.40;;;;;;;13.86;100.00;101036.75;5268758;28;20115;-76
2022/10/23 04:39:54;;;;;;;11.80;5.70;;;;;;;13.85;100.00;101037.75;5266524;28;20405;-76
2022/10/23 04:42:25;;;;;;;12.02;6.65;;;;;;;13.79;100.00;101023.38;5266713;28;20025;-77
2022/10/23 04:44:57;;;;;;;8.65;4.55;;;;;;;13.82;100.00;101022.22;5266105;28;20098;-76
2022/10/23 04:47:28;;;;;;;10.20;5.50;;;;;;;13.88;100.00;101034.81;5265951;28;20035;-77
2022/10/23 04:49:59;;;;;;;12.05;5.32;;;;;;;13.87;100.00;101035.81;5267026;28;20028;-77
2022/10/23 04:52:31;;;;;;;7.65;5.07;;;;;;;13.85;100.00;101021.94;5273965;28;20021;-77
2022/10/23 04:55:03;;;;;;;9.82;5.05;;;;;;;13.91;100.00;101016.09;5266481;28;20036;-77
2022/10/23 04:57:34;;;;;;;14.23;5.25;;;;;;;13.84;100.00;101007.13;5266186;28;20516;-76
2022/10/23 05:00:09;;;;;;;10.00;5.28;;;;;;;13.98;100.00;101025.06;5266210;28;20028;-76
2022/10/23 05:02:40;;;;;;;9.27;5.13;;;;;;;13.90;100.00;101016.22;5267639;28;20096;-76
2022/10/23 05:05:12;;;;;;;10.35;5.30;;;;;;;13.92;100.00;101014.28;5267037;28;20036;-77
2022/10/23 05:07:43;;;;;;;7.38;5.07;;;;;;;13.95;100.00;101014.00;5268270;28;20036;-76
2022/10/23 05:10:14;;;;;;;9.98;5.00;;;;;;;13.97;100.00;101015.47;5266249;28;20024;-76
2022/10/23 05:12:45;;;;;;;10.20;4.93;;;;;;;14.09;100.00;101013.47;5267723;28;20028;-77
2022/10/23 05:15:17;;;;;;;10.98;5.95;;;;;;;14.09;100.00;101009.06;5265436;28;20033;-77
2022/10/23 05:17:53;;;;;;;7.22;5.20;;;;;;;14.10;100.00;101004.59;5267361;28;20058;-78
2022/10/23 05:20:27;;;;;;;9.57;4.82;;;;;;;14.12;100.00;101002.63;5265003;28;20020;-77
2022/10/23 05:23:01;;;;;;;7.68;5.05;;;;;;;14.11;100.00;101000.97;5267286;28;20025;-77
2022/10/23 05:25:33;;;;;;;10.25;4.78;;;;;;;14.07;100.00;101007.53;5265436;28;20443;-77
2022/10/23 05:28:05;;;;;;;7.10;5.13;;;;;;;14.07;100.00;100997.81;5265693;28;20389;-78
2022/10/23 05:30:37;;;;;;;9.07;5.15;;;;;;;14.05;100.00;100994.53;5266325;28;20028;-77
2022/10/23 05:33:10;;;;;;;8.67;5.00;;;;;;;14.08;100.00;101001.28;5265825;28;20027;-77
2022/10/23 05:35:43;;;;;;;11.85;5.50;;;;;;;14.13;100.00;100993.78;5273631;28;20344;-77
2022/10/23 05:38:15;;;;;;;9.45;4.65;;;;;;;14.08;100.00;100990.75;5266457;28;20033;-76
2022/10/23 05:40:46;;;;;;;7.53;4.85;;;;;;;14.06;100.00;100984.81;5266609;28;20032;-76
2022/10/23 05:43:17;;;;;;;9.38;5.13;;;;;;;14.06;100.00;100982.19;5265936;28;20033;-77
2022/10/23 05:45:49;;;;;;;10.05;5.25;;;;;;;14.17;100.00;100989.88;5271657;28;20082;-76
2022/10/23 05:48:20;;;;;;;6.78;4.18;;;;;;;14.16;100.00;100987.34;5265244;28;20035;-78
2022/10/23 05:50:51;;;;;;;8.38;4.82;;;;;;;14.15;100.00;100980.44;5264706;28;20525;-77
2022/10/23 05:53:23;;;;;;;6.68;4.35;;;;;;;14.18;100.00;100980.16;5266171;28;20029;-78
2022/10/23 05:55:54;;;;;;;7.10;4.60;;;;;;;14.23;100.00;100988.41;5264928;28;20017;-77
2022/10/23 05:58:25;;;;;;;10.25;4.60;;;;;;;14.23;100.00;100978.69;5266685;28;20020;-77
2022/10/23 06:00:56;;;;;;;9.50;4.97;;;;;;;14.30;100.00;100978.94;5264272;28;20476;-76
2022/10/23 06:03:28;;;;;;;7.07;4.40;;;;;;;14.28;100.00;100972.97;5265646;28;20033;-77
2022/10/23 06:05:59;;;;;;;7.05;4.38;;;;;;;14.24;100.00;100969.81;5266721;28;20444;-77
2022/10/23 06:08:31;;;;;;;6.70;4.40;;;;;;;14.19;100.00;100966.81;5265236;28;20400;-77
2022/10/23 06:11:10;;;;;;;9.00;4.27;;;;;;;14.31;100.00;100970.88;5265458;28;20433;-77
2022/10/23 06:13:43;;;;;;;7.78;4.07;;;;;;;14.20;100.00;100967.63;5266023;28;20386;-78
2022/10/23 06:16:19;;;;;;;8.63;4.85;;;;;;;14.25;100.00;100957.50;5266212;28;20036;-77
2022/10/23 06:18:50;;;;;;;8.75;4.55;;;;;;;14.22;100.00;100966.50;5263380;28;20123;-77
2022/10/23 06:21:22;;;;;;;10.52;4.07;;;;;;;14.27;100.00;100969.50;5257567;28;20164;-77
2022/10/23 06:23:54;;;;;;;6.30;3.83;;;;;;;14.28;100.00;100959.78;5265762;28;20020;-77
2022/10/23 06:26:25;;;;;;;8.27;4.80;;;;;;;14.24;100.00;100954.00;5266244;28;20381;-77
2022/10/23 06:28:57;;;;;;;8.75;4.80;;;;;;;14.18;100.00;100949.34;5264747;28;20028;-77
2022/10/23 06:31:28;;;;;;;9.27;4.15;;;;;;;14.25;100.00;100955.69;5265079;28;20134;-77
2022/10/23 06:33:59;;;;;;;10.25;4.53;;;;;;;14.29;100.00;100945.66;5264634;28;20032;-77
2022/10/23 06:36:31;;;;;;;9.23;4.10;;;;;;;14.25;100.00;100937.22;5265067;28;20159;-77
2022/10/23 06:39:03;;;;;;;9.90;4.07;;;;;;;14.31;100.00;100944.50;5266043;28;20478;-77
2022/10/23 06:41:34;;;;;;;10.70;4.25;;;;;;;14.31;100.00;100938.41;5266129;28;20443;-77
2022/10/23 06:44:05;;;;;;;5.65;3.80;;;;;;;14.35;100.00;100932.69;5265124;28;20024;-77
2022/10/23 06:46:36;;;;;;;9.18;3.90;;;;;;;14.31;100.00;100918.16;5266046;28;20033;-77
2022/10/23 06:49:08;;;;;;;8.57;4.10;;;;;;;14.41;100.00;100925.16;5266217;28;20021;-77
2022/10/23 06:51:40;;;;;;;7.25;3.90;;;;;;;14.37;100.00;100919.38;5262603;28;20100;-77
2022/10/23 06:54:11;;;;;;;9.95;4.32;;;;;;;14.40;100.00;100926.16;5266450;28;20041;-77
2022/10/23 06:56:42;;;;;;;7.57;4.13;;;;;;;14.41;100.00;100919.88;5265818;28;20025;-77
2022/10/23 06:59:14;;;;;;;9.07;4.30;;;;;;;14.47;100.00;100919.25;5265024;28;20044;-77
2022/10/23 07:01:45;;;;;;;8.50;4.50;;;;;;;14.50;100.00;100921.63;5263630;28;20104;-78
2022/10/23 07:04:16;;;;;;;7.22;4.25;;;;;;;14.49;100.00;100914.69;5265670;28;20558;-77
2022/10/23 07:06:48;;;;;;;6.95;3.63;;;;;;;14.54;100.00;100926.44;5265156;28;20107;-77
2022/10/23 07:09:19;;;;;;;9.75;4.07;;;;;;;14.58;100.00;100925.16;5262641;28;20592;-77
2022/10/23 07:11:50;;;;;;;8.75;4.10;;;;;;;14.58;100.00;100926.94;5264570;28;20031;-78
2022/10/23 07:14:22;;;;;;;8.45;3.85;;;;;;;14.62;100.00;100915.13;5272649;28;20059;-77
2022/10/23 07:16:53;;;;;;;9.20;4.00;;;;;;;14.66;100.00;100921.75;5264735;28;20017;-77
2022/10/23 07:19:24;;;;;;;7.13;3.75;;;;;;;14.71;100.00;100914.19;5264891;28;20024;-77
2022/10/23 07:21:55;;;;;;;6.60;3.78;;;;;;;14.75;100.00;100912.09;5265159;28;20021;-77
2022/10/23 07:24:27;;;;;;;6.82;3.80;;;;;;;14.76;100.00;100913.72;5265597;28;20028;-77
2022/10/23 07:26:58;;;;;;;6.97;3.40;;;;;;;14.73;100.00;100898.22;5257230;28;20021;-78
2022/10/23 07:29:30;;;;;;;13.55;4.53;;;;;;;14.83;100.00;100904.22;5266443;28;20107;-77
2022/10/23 07:32:01;;;;;;;5.65;3.63;;;;;;;14.85;100.00;100904.91;5264231;28;20025;-77
2022/10/23 07:34:32;;;;;;;6.40;3.10;;;;;;;14.80;100.00;100886.88;5265260;28;20030;-77
2022/10/23 07:37:03;;;;;;;11.13;4.50;;;;;;;14.91;100.00;100898.16;5263860;28;20046;-78
2022/10/23 07:39:35;;;;;;;6.68;3.20;;;;;;;14.91;100.00;100900.78;5264437;28;20036;-77
2022/10/23 07:42:08;;;;;;;8.05;3.65;;;;;;;14.97;100.00;100889.63;5265162;28;20025;-78
2022/10/23 07:44:39;;;;;;;;;;;;;;;15.58;100.00;100891.16;5270216;28;20040;-77
2022/10/23 07:47:11;;;;;;;9.73;4.23;;;;;;;15.02;100.00;100885.50;5270585;28;19982;-77
2022/10/23 07:49:42;;;;;;;6.72;3.50;;;;;;;15.09;100.00;100894.47;5267364;28;20025;-77
2022/10/23 07:52:13;;;;;;;7.93;3.70;;;;;;;15.14;100.00;100898.44;5269252;28;20017;-78
2022/10/23 07:54:45;;;;;;;6.32;2.58;;;;;;;15.17;100.00;100898.13;5268841;28;20024;-77
2022/10/23 07:57:16;;;;;;;10.02;3.50;;;;;;;15.24;100.00;100901.78;5268539;28;20071;-77
2022/10/23 07:59:47;;;;;;;4.82;2.85;;;;;;;15.18;100.00;100879.47;5267749;28;20090;-77
2022/10/23 08:02:19;;;;;;;6.63;3.10;;;;;;;15.35;100.00;100890.09;5266629;28;20064;-78
2022/10/23 08:04:50;;;;;;;5.00;2.92;;;;;;;15.35;100.00;100888.28;5267452;28;20404;-77
2022/10/23 08:07:22;;;;;;;9.95;3.67;;;;;;;15.39;100.00;100884.34;5268125;28;20025;-76
2022/10/23 08:09:53;;;;;;;9.20;3.40;;;;;;;15.44;100.00;100881.22;5266204;28;20025;-77
2022/10/23 08:12:24;;;;;;;7.70;3.13;;;;;;;15.47;100.00;100886.19;5266587;28;20046;-77
2022/10/23 08:14:55;;;;;;;7.40;2.85;;;;;;;15.55;100.00;100888.84;5266961;28;20048;-77
2022/10/23 08:17:27;;;;;;;7.95;3.33;;;;;;;15.56;100.00;100879.91;5268986;28;20029;-78
2022/10/23 08:19:58;;;;;;;5.95;3.30;;;;;;;15.61;100.00;100885.56;5267237;28;20021;-78
2022/10/23 08:22:30;;;;;;;7.63;3.00;;;;;;;15.65;100.00;100873.72;5263565;28;20024;-77
2022/10/23 08:25:01;;;;;;;9.77;3.38;;;;;;;15.69;100.00;100876.84;5267544;28;20075;-77
2022/10/23 08:27:32;;;;;;;6.10;3.25;;;;;;;15.74;100.00;100879.84;5266542;28;20397;-78
2022/10/23 08:30:04;;;;;;;6.03;3.50;;;;;;;15.78;100.00;100881.97;5266460;28;20052;-77
2022/10/23 08:32:36;;;;;;;5.25;3.13;;;;;;;15.80;100.00;100876.53;5265348;28;20032;-77
2022/10/23 08:35:07;;;;;;;7.53;3.40;;;;;;;15.81;100.00;100875.56;5268209;28;20075;-78
2022/10/23 08:37:39;;;;;;;7.50;3.00;;;;;;;15.85;100.00;100862.84;5266505;28;20025;-76
2022/10/23 08:40:20;;;;;;;6.13;3.58;;;;;;;15.96;100.00;100871.25;5266723;28;20119;-77
2022/10/23 08:43:19;;;;;;;7.45;3.38;;;;;;;16.03;100.00;100842.38;5268361;28;20504;-77
2022/10/23 08:46:06;;;;;;;4.88;3.13;;;;;;;16.01;100.00;100857.56;5261876;28;20478;-77
2022/10/23 08:48:49;;;;;;;5.10;3.05;;;;;;;16.02;100.00;100854.75;5266564;28;20473;-77
2022/10/23 08:51:27;;;;;;;5.68;3.13;;;;;;;15.99;100.00;100849.81;5265295;28;20025;-77
2022/10/23 08:54:06;;;;;;;7.32;3.60;;;;;;;16.01;100.00;100846.97;5266024;28;20486;-77
2022/10/23 08:56:41;;;;;;;8.73;3.72;;;;;;;16.03;100.00;100850.31;5266792;28;20085;-77
2022/10/23 08:59:31;;;;;;;7.40;3.78;;;;;;;16.15;100.00;100843.69;5264617;28;20025;-77
2022/10/23 09:02:40;;;;;;;8.90;3.80;;;;;;;16.21;100.00;100844.81;5262063;28;20052;-77
2022/10/23 09:05:31;;;;;;;8.18;3.70;;;;;;;16.27;100.00;100834.41;5254500;28;20082;-77
2022/10/23 09:08:24;;;;;;;7.47;3.58;;;;;;;16.30;100.00;100827.97;5264994;28;20356;-77
2022/10/23 09:11:05;;;;;;;;;;;;;;;16.75;100.00;100818.63;5264009;28;20115;-77
2022/10/23 09:13:55;;;;;;;11.15;4.93;;;;;;;16.47;100.00;100824.28;5266837;28;20297;-77
2022/10/23 09:16:42;;;;;;;7.10;3.55;;;;;;;16.45;100.00;100822.81;5263738;28;20036;-77
2022/10/23 09:19:18;;;;;;;7.85;4.13;;;;;;;16.41;100.00;100817.03;5265221;28;20518;-77
2022/10/23 09:21:50;;;;;;;10.13;3.90;;;;;;;16.34;100.00;100810.78;5263497;28;20504;-77
2022/10/23 09:24:23;;;;;;;6.78;4.38;;;;;;;16.44;100.00;100807.94;5265185;28;20036;-77
2022/10/23 09:26:55;;;;;;;6.25;3.17;;;;;;;16.41;100.00;100806.47;5266227;28;20031;-77
2022/10/23 09:29:28;;;;;;;7.22;3.50;;;;;;;16.47;100.00;100805.78;5263199;28;20667;-77
2022/10/23 09:32:01;;;;;;;6.07;3.45;;;;;;;16.49;100.00;100810.91;5263587;28;20058;-77
2022/10/23 09:34:33;;;;;;;;;;;;;;;17.10;100.00;100790.03;5265636;28;20060;-77
2022/10/23 09:37:26;;;;;;;7.72;3.50;;;;;;;16.84;100.00;100785.84;5265208;28;19912;-77
2022/10/23 09:40:37;;;;;;;7.07;3.88;;;;;;;16.87;100.00;100774.09;5265187;28;20048;-77
2022/10/23 09:43:22;;;;;;;7.53;3.00;;;;;;;16.78;100.00;100770.66;5264163;28;20047;-77
2022/10/23 09:46:01;;;;;;;5.93;3.53;;;;;;;16.81;100.00;100772.94;5266756;28;20501;-77
2022/10/23 09:48:33;;;;;;;6.90;3.58;;;;;;;16.70;100.00;100775.94;5256999;28;20392;-77
2022/10/23 09:51:19;;;;;;;7.70;3.47;;;;;;;16.94;100.00;100772.41;5266509;28;20025;-77
2022/10/23 09:53:57;;;;;;;9.85;3.15;;;;;;;16.87;100.00;100772.28;5266642;28;20033;-77
2022/10/23 09:56:39;;;;;;;8.40;2.80;;;;;;;16.89;100.00;100770.25;5265996;28;20083;-77
2022/10/23 09:59:11;;;;;;;8.85;3.72;;;;;;;16.84;100.00;100762.03;5264885;28;20600;-77
2022/10/23 10:01:51;;;;;;;7.30;4.40;;;;;;;17.00;100.00;100753.16;5266572;28;20132;-77
2022/10/23 10:04:36;;;;;;;7.07;4.95;;;;;;;17.02;100.00;100752.00;5266407;28;20075;-77
2022/10/23 10:07:23;;;;;;;7.60;4.20;;;;;;;17.13;100.00;100748.16;5265368;28;20389;-77
2022/10/23 10:09:56;;;;;;;6.43;4.03;;;;;;;16.94;100.00;100732.72;5260785;28;20437;-77
2022/10/23 10:12:34;;;;;;;7.15;3.60;;;;;;;16.93;100.00;100736.34;5264673;28;20029;-77
2022/10/23 10:15:30;;;;;;;6.45;3.22;;;;;;;17.19;100.00;100722.78;5262872;28;20035;-77
2022/10/23 10:18:18;;;;;;;6.95;3.47;;;;;;;17.18;100.00;100729.09;5265056;28;20444;-77
2022/10/23 10:21:10;;;;;;;7.47;3.45;;;;;;;17.12;100.00;100716.53;5265288;28;20115;-77
2022/10/23 10:24:15;;;;;;;7.32;3.03;;;;;;;17.40;100.00;100704.44;5263408;28;20043;-77
2022/10/23 10:27:00;;;;;;;4.78;2.53;;;;;;;17.22;100.00;100694.13;5250822;28;20125;-77
2022/10/23 10:30:09;;;;;;;6.30;2.90;;;;;;;17.38;100.00;100716.19;5262608;28;20023;-77
2022/10/23 10:33:04;;;;;;;8.93;2.92;;;;;;;17.47;100.00;100712.50;5265083;28;20133;-77
2022/10/23 10:35:52;;;;;;;6.10;2.50;;;;;;;17.46;100.00;100710.81;5265145;28;20025;-77
2022/10/23 10:38:55;;;;;;;4.60;2.60;;;;;;;17.47;100.00;100704.53;5263746;28;20029;-78
2022/10/23 10:41:43;;;;;;;7.15;2.92;;;;;;;17.67;100.00;100713.63;5276916;28;20041;-76
2022/10/23 10:44:32;;;;;;;7.30;3.78;;;;;;;17.73;100.00;100704.16;5264054;28;20027;-77
2022/10/23 10:47:44;;;;;;;8.95;5.22;;;;;;;17.96;100.00;100698.81;5261483;28;20031;-77
2022/10/23 10:50:45;;;;;;;9.15;3.35;;;;;;;17.89;100.00;100697.88;5255982;28;20061;-77
2022/10/23 10:53:30;;;;;;;6.80;2.80;;;;;;;17.95;100.00;100678.59;5261257;28;20041;-77
2022/10/23 10:56:03;;;;;;;5.57;2.63;;;;;;;18.05;100.00;100691.59;5265574;28;20033;-77
2022/10/23 10:58:41;;;;;;;10.35;2.90;;;;;;;18.16;100.00;100681.34;5267584;28;20080;-77
2022/10/23 11:01:30;;;;;;;6.90;2.80;;;;;;;18.25;100.00;100676.75;5264254;28;20084;-77
2022/10/23 11:04:37;;;;;;;7.88;2.38;;;;;;;18.62;100.00;100685.59;5266827;28;20470;-77
2022/10/23 11:07:14;;;;;;;10.40;2.63;;;;;;;18.50;100.00;100677.28;5252847;28;20060;-77
2022/10/23 11:09:45;;;;;;;4.72;2.33;;;;;;;18.53;100.00;100676.09;5273518;28;20029;-77
2022/10/23 11:12:21;;;;;;;5.50;2.58;;;;;;;18.66;100.00;100669.09;5267053;28;20522;-77
2022/10/23 11:14:53;;;;;;;6.55;2.78;;;;;;;18.54;100.00;100662.63;5265022;28;20446;-78
2022/10/23 11:17:26;;;;;;;7.05;3.17;;;;;;;18.65;100.00;100659.50;5265833;28;20048;-78
2022/10/23 11:20:04;;;;;;;5.35;2.45;;;;;;;18.78;100.00;100671.28;5264463;28;20025;-77
2022/10/23 11:22:45;;;;;;;7.35;2.78;;;;;;;18.74;100.00;100678.81;5271088;28;20031;-77
2022/10/23 11:25:19;;;;;;;6.72;2.80;;;;;;;18.84;100.00;100655.44;5268121;28;20024;-78
2022/10/23 11:28:06;;;;;;;5.80;2.65;;;;;;;18.90;100.00;100651.19;5265656;28;20101;-78
2022/10/23 11:31:16;;;;;;;6.28;2.53;;;;;;;19.27;100.00;100646.63;5270817;28;20589;-77
2022/10/23 11:34:15;;;;;;;5.45;2.78;;;;;;;19.22;100.00;100638.44;5215161;28;20061;-77
2022/10/23 11:36:54;;;;;;;5.90;2.58;;;;;;;19.20;100.00;100612.03;5269081;28;20029;-78
2022/10/23 11:39:28;;;;;;;5.68;2.45;;;;;;;19.20;100.00;100625.31;5271307;28;20051;-78
2022/10/23 11:42:03;;;;;;;4.45;2.75;;;;;;;19.33;100.00;100624.63;5268037;28;20049;-78
2022/10/23 11:44:41;;;;;;;4.25;2.08;;;;;;;19.41;100.00;100614.66;5270560;28;20028;-78
2022/10/23 11:47:30;;;;;;;6.22;2.58;;;;;;;19.59;100.00;100605.41;5271568;28;20037;-78
2022/10/23 11:50:07;;;;;;;5.35;2.72;;;;;;;19.56;100.00;100600.47;5270813;28;20024;-77
2022/10/23 11:53:05;;;;;;;4.22;2.13;;;;;;;19.66;100.00;100591.16;5269541;28;20032;-77
2022/10/23 11:55:37;;;;;;;7.78;2.83;;;;;;;19.48;100.00;100592.66;5268205;28;20050;-78
2022/10/23 11:58:19;;;;;;;8.68;2.55;;;;;;;19.62;100.00;100608.53;5266268;28;20037;-78
2022/10/23 12:00:50;;;;;;;9.57;2.70;;;;;;;19.50;100.00;100606.53;5267432;28;20444;-78